sensor_id;sensor_type;location;lat;lon;timestamp;temperature;humidity
70534;SHT31;58088;51.186;17.130;2023-11-21T00:02:08;10.81;80.20
70534;SHT31;58088;51.186;17.130;2023-11-21T00:04:34;10.80;80.21
70534;SHT31;58088;51.186;17.130;2023-11-21T00:07:00;10.83;80.21
70534;SHT31;58088;51.186;17.130;2023-11-21T00:09:26;10.82;80.17
70534;SHT31;58088;51.186;17.130;2023-11-21T00:11:53;10.81;80.13
70534;SHT31;58088;51.186;17.130;2023-11-21T00:14:19;10.80;80.11
70534;SHT31;58088;51.186;17.130;2023-11-21T00:16:45;10.79;80.10
70534;SHT31;58088;51.186;17.130;2023-11-21T00:19:11;10.77;80.09
70534;SHT31;58088;51.186;17.130;2023-11-21T00:21:38;10.77;80.10
70534;SHT31;58088;51.186;17.130;2023-11-21T00:24:04;10.77;80.09
70534;SHT31;58088;51.186;17.130;2023-11-21T00:26:30;10.75;80.10
70534;SHT31;58088;51.186;17.130;2023-11-21T00:29:03;10.75;80.10
70534;SHT31;58088;51.186;17.130;2023-11-21T00:31:29;10.72;80.04
70534;SHT31;58088;51.186;17.130;2023-11-21T00:33:56;10.70;80.11
70534;SHT31;58088;51.186;17.130;2023-11-21T00:36:22;10.69;80.16
70534;SHT31;58088;51.186;17.130;2023-11-21T00:38:48;10.69;80.10
70534;SHT31;58088;51.186;17.130;2023-11-21T00:41:14;10.68;80.10
70534;SHT31;58088;51.186;17.130;2023-11-21T00:43:41;10.68;80.08
70534;SHT31;58088;51.186;17.130;2023-11-21T00:46:07;10.66;80.07
70534;SHT31;58088;51.186;17.130;2023-11-21T00:48:33;10.68;80.07
70534;SHT31;58088;51.186;17.130;2023-11-21T00:50:59;10.67;80.00
70534;SHT31;58088;51.186;17.130;2023-11-21T00:53:26;10.65;80.00
70534;SHT31;58088;51.186;17.130;2023-11-21T00:55:52;10.65;79.98
70534;SHT31;58088;51.186;17.130;2023-11-21T00:58:25;10.64;79.95
70534;SHT31;58088;51.186;17.130;2023-11-21T01:00:52;10.62;79.91
70534;SHT31;58088;51.186;17.130;2023-11-21T01:03:18;10.60;79.91
70534;SHT31;58088;51.186;17.130;2023-11-21T01:05:45;10.59;79.90
70534;SHT31;58088;51.186;17.130;2023-11-21T01:08:12;10.57;79.90
70534;SHT31;58088;51.186;17.130;2023-11-21T01:10:38;10.57;79.92
70534;SHT31;58088;51.186;17.130;2023-11-21T01:13:04;10.57;79.95
70534;SHT31;58088;51.186;17.130;2023-11-21T01:15:30;10.58;79.91
70534;SHT31;58088;51.186;17.130;2023-11-21T01:17:58;10.59;79.93
70534;SHT31;58088;51.186;17.130;2023-11-21T01:20:24;10.59;79.87
70534;SHT31;58088;51.186;17.130;2023-11-21T01:22:52;10.59;79.83
70534;SHT31;58088;51.186;17.130;2023-11-21T01:25:20;10.58;79.87
70534;SHT31;58088;51.186;17.130;2023-11-21T01:27:48;10.59;79.86
70534;SHT31;58088;51.186;17.130;2023-11-21T01:30:14;10.59;79.82
70534;SHT31;58088;51.186;17.130;2023-11-21T01:32:42;10.58;79.81
70534;SHT31;58088;51.186;17.130;2023-11-21T01:35:09;10.56;79.80
70534;SHT31;58088;51.186;17.130;2023-11-21T01:37:37;10.57;79.81
70534;SHT31;58088;51.186;17.130;2023-11-21T01:40:04;10.58;79.89
70534;SHT31;58088;51.186;17.130;2023-11-21T01:42:35;10.60;79.82
70534;SHT31;58088;51.186;17.130;2023-11-21T01:45:02;10.61;79.78
70534;SHT31;58088;51.186;17.130;2023-11-21T01:47:31;10.58;79.77
70534;SHT31;58088;51.186;17.130;2023-11-21T01:49:59;10.56;79.80
70534;SHT31;58088;51.186;17.130;2023-11-21T01:52:27;10.56;79.80
70534;SHT31;58088;51.186;17.130;2023-11-21T01:54:55;10.56;79.78
70534;SHT31;58088;51.186;17.130;2023-11-21T01:57:26;10.53;79.73
70534;SHT31;58088;51.186;17.130;2023-11-21T01:59:54;10.53;79.79
70534;SHT31;58088;51.186;17.130;2023-11-21T02:02:21;10.53;79.73
70534;SHT31;58088;51.186;17.130;2023-11-21T02:04:48;10.53;79.75
70534;SHT31;58088;51.186;17.130;2023-11-21T02:07:15;10.53;79.70
70534;SHT31;58088;51.186;17.130;2023-11-21T02:09:41;10.52;79.72
70534;SHT31;58088;51.186;17.130;2023-11-21T02:12:09;10.52;79.78
70534;SHT31;58088;51.186;17.130;2023-11-21T02:14:36;10.50;79.70
70534;SHT31;58088;51.186;17.130;2023-11-21T02:17:02;10.49;79.73
70534;SHT31;58088;51.186;17.130;2023-11-21T02:19:31;10.47;79.78
70534;SHT31;58088;51.186;17.130;2023-11-21T02:21:58;10.45;79.78
70534;SHT31;58088;51.186;17.130;2023-11-21T02:24:32;10.43;79.80
70534;SHT31;58088;51.186;17.130;2023-11-21T02:26:58;10.42;79.84
70534;SHT31;58088;51.186;17.130;2023-11-21T02:29:24;10.42;79.83
70534;SHT31;58088;51.186;17.130;2023-11-21T02:31:54;10.43;79.83
70534;SHT31;58088;51.186;17.130;2023-11-21T02:34:21;10.40;79.80
70534;SHT31;58088;51.186;17.130;2023-11-21T02:36:50;10.38;79.83
70534;SHT31;58088;51.186;17.130;2023-11-21T02:39:17;10.36;79.83
70534;SHT31;58088;51.186;17.130;2023-11-21T02:41:44;10.35;79.86
70534;SHT31;58088;51.186;17.130;2023-11-21T02:44:10;10.34;79.89
70534;SHT31;58088;51.186;17.130;2023-11-21T02:46:36;10.32;79.88
70534;SHT31;58088;51.186;17.130;2023-11-21T02:49:03;10.32;79.90
70534;SHT31;58088;51.186;17.130;2023-11-21T02:51:32;10.31;79.89
70534;SHT31;58088;51.186;17.130;2023-11-21T02:53:59;10.30;79.90
70534;SHT31;58088;51.186;17.130;2023-11-21T02:56:28;10.29;79.91
70534;SHT31;58088;51.186;17.130;2023-11-21T02:58:59;10.28;79.99
70534;SHT31;58088;51.186;17.130;2023-11-21T03:04:52;10.29;80.01
70534;SHT31;58088;51.186;17.130;2023-11-21T03:07:19;10.30;80.08
70534;SHT31;58088;51.186;17.130;2023-11-21T03:09:47;10.30;80.08
70534;SHT31;58088;51.186;17.130;2023-11-21T03:12:13;10.31;80.08
70534;SHT31;58088;51.186;17.130;2023-11-21T03:14:39;10.31;80.10
70534;SHT31;58088;51.186;17.130;2023-11-21T03:17:06;10.32;80.10
70534;SHT31;58088;51.186;17.130;2023-11-21T03:19:32;10.32;80.10
70534;SHT31;58088;51.186;17.130;2023-11-21T03:21:58;10.31;80.14
70534;SHT31;58088;51.186;17.130;2023-11-21T03:24:25;10.32;80.20
70534;SHT31;58088;51.186;17.130;2023-11-21T03:26:52;10.32;80.20
70534;SHT31;58088;51.186;17.130;2023-11-21T03:29:18;10.31;80.20
70534;SHT31;58088;51.186;17.130;2023-11-21T03:31:44;10.31;80.19
70534;SHT31;58088;51.186;17.130;2023-11-21T03:34:14;10.32;80.20
70534;SHT31;58088;51.186;17.130;2023-11-21T03:36:45;10.30;80.20
70534;SHT31;58088;51.186;17.130;2023-11-21T03:39:12;10.29;80.21
70534;SHT31;58088;51.186;17.130;2023-11-21T03:41:38;10.27;80.22
70534;SHT31;58088;51.186;17.130;2023-11-21T03:44:04;10.26;80.30
70534;SHT31;58088;51.186;17.130;2023-11-21T03:46:31;10.26;80.31
70534;SHT31;58088;51.186;17.130;2023-11-21T03:48:57;10.28;80.33
70534;SHT31;58088;51.186;17.130;2023-11-21T03:51:23;10.27;80.40
70534;SHT31;58088;51.186;17.130;2023-11-21T03:53:49;10.28;80.34
70534;SHT31;58088;51.186;17.130;2023-11-21T03:56:15;10.28;80.40
70534;SHT31;58088;51.186;17.130;2023-11-21T03:58:41;10.27;80.39
70534;SHT31;58088;51.186;17.130;2023-11-21T04:01:08;10.26;80.36
70534;SHT31;58088;51.186;17.130;2023-11-21T04:03:34;10.27;80.41
70534;SHT31;58088;51.186;17.130;2023-11-21T04:06:01;10.28;80.40
70534;SHT31;58088;51.186;17.130;2023-11-21T04:08:27;10.31;80.40
70534;SHT31;58088;51.186;17.130;2023-11-21T04:10:53;10.31;80.39
70534;SHT31;58088;51.186;17.130;2023-11-21T04:13:20;10.33;80.41
70534;SHT31;58088;51.186;17.130;2023-11-21T04:15:46;10.34;80.40
70534;SHT31;58088;51.186;17.130;2023-11-21T04:18:12;10.35;80.39
70534;SHT31;58088;51.186;17.130;2023-11-21T04:20:39;10.35;80.36
70534;SHT31;58088;51.186;17.130;2023-11-21T04:23:06;10.35;80.34
70534;SHT31;58088;51.186;17.130;2023-11-21T04:25:32;10.35;80.37
70534;SHT31;58088;51.186;17.130;2023-11-21T04:27:58;10.34;80.38
70534;SHT31;58088;51.186;17.130;2023-11-21T04:30:24;10.34;80.36
70534;SHT31;58088;51.186;17.130;2023-11-21T04:32:51;10.34;80.40
70534;SHT31;58088;51.186;17.130;2023-11-21T04:35:17;10.35;80.40
70534;SHT31;58088;51.186;17.130;2023-11-21T04:37:43;10.34;80.34
70534;SHT31;58088;51.186;17.130;2023-11-21T04:40:10;10.34;80.31
70534;SHT31;58088;51.186;17.130;2023-11-21T04:42:36;10.33;80.32
70534;SHT31;58088;51.186;17.130;2023-11-21T04:45:04;10.33;80.30
70534;SHT31;58088;51.186;17.130;2023-11-21T04:47:35;10.31;80.35
70534;SHT31;58088;51.186;17.130;2023-11-21T04:50:02;10.33;80.34
70534;SHT31;58088;51.186;17.130;2023-11-21T04:52:30;10.33;80.30
70534;SHT31;58088;51.186;17.130;2023-11-21T04:54:56;10.33;80.30
70534;SHT31;58088;51.186;17.130;2023-11-21T04:57:24;10.32;80.26
70534;SHT31;58088;51.186;17.130;2023-11-21T04:59:50;10.33;80.26
70534;SHT31;58088;51.186;17.130;2023-11-21T05:02:16;10.33;80.22
70534;SHT31;58088;51.186;17.130;2023-11-21T05:04:44;10.31;80.23
70534;SHT31;58088;51.186;17.130;2023-11-21T05:07:11;10.31;80.28
70534;SHT31;58088;51.186;17.130;2023-11-21T05:09:41;10.29;80.30
70534;SHT31;58088;51.186;17.130;2023-11-21T05:12:11;10.30;80.30
70534;SHT31;58088;51.186;17.130;2023-11-21T05:14:40;10.29;80.30
70534;SHT31;58088;51.186;17.130;2023-11-21T05:17:07;10.31;80.30
70534;SHT31;58088;51.186;17.130;2023-11-21T05:19:33;10.35;80.36
70534;SHT31;58088;51.186;17.130;2023-11-21T05:22:01;10.38;80.28
70534;SHT31;58088;51.186;17.130;2023-11-21T05:24:27;10.37;80.21
70534;SHT31;58088;51.186;17.130;2023-11-21T05:26:54;10.35;80.19
70534;SHT31;58088;51.186;17.130;2023-11-21T05:29:21;10.32;80.15
70534;SHT31;58088;51.186;17.130;2023-11-21T05:31:47;10.28;80.19
70534;SHT31;58088;51.186;17.130;2023-11-21T05:34:14;10.25;80.22
70534;SHT31;58088;51.186;17.130;2023-11-21T05:36:42;10.25;80.20
70534;SHT31;58088;51.186;17.130;2023-11-21T05:39:11;10.24;80.29
70534;SHT31;58088;51.186;17.130;2023-11-21T05:41:37;10.26;80.27
70534;SHT31;58088;51.186;17.130;2023-11-21T05:44:03;10.25;80.26
70534;SHT31;58088;51.186;17.130;2023-11-21T05:46:30;10.25;80.27
70534;SHT31;58088;51.186;17.130;2023-11-21T05:48:56;10.23;80.26
70534;SHT31;58088;51.186;17.130;2023-11-21T05:51:22;10.20;80.30
70534;SHT31;58088;51.186;17.130;2023-11-21T05:53:50;10.21;80.31
70534;SHT31;58088;51.186;17.130;2023-11-21T05:56:16;10.19;80.33
70534;SHT31;58088;51.186;17.130;2023-11-21T05:58:43;10.18;80.40
70534;SHT31;58088;51.186;17.130;2023-11-21T06:01:09;10.21;80.38
70534;SHT31;58088;51.186;17.130;2023-11-21T06:03:38;10.20;80.39
70534;SHT31;58088;51.186;17.130;2023-11-21T06:06:04;10.21;80.35
70534;SHT31;58088;51.186;17.130;2023-11-21T06:08:32;10.20;80.36
70534;SHT31;58088;51.186;17.130;2023-11-21T06:10:58;10.19;80.36
70534;SHT31;58088;51.186;17.130;2023-11-21T06:13:24;10.20;80.34
70534;SHT31;58088;51.186;17.130;2023-11-21T06:15:51;10.20;80.30
70534;SHT31;58088;51.186;17.130;2023-11-21T06:18:17;10.20;80.29
70534;SHT31;58088;51.186;17.130;2023-11-21T06:20:45;10.19;80.28
70534;SHT31;58088;51.186;17.130;2023-11-21T06:23:12;10.22;80.32
70534;SHT31;58088;51.186;17.130;2023-11-21T06:25:38;10.23;80.30
70534;SHT31;58088;51.186;17.130;2023-11-21T06:28:04;10.22;80.23
70534;SHT31;58088;51.186;17.130;2023-11-21T06:30:30;10.20;80.26
70534;SHT31;58088;51.186;17.130;2023-11-21T06:32:57;10.21;80.29
70534;SHT31;58088;51.186;17.130;2023-11-21T06:35:24;10.23;80.23
70534;SHT31;58088;51.186;17.130;2023-11-21T06:37:53;10.22;80.23
70534;SHT31;58088;51.186;17.130;2023-11-21T06:40:19;10.21;80.24
70534;SHT31;58088;51.186;17.130;2023-11-21T06:42:45;10.22;80.30
70534;SHT31;58088;51.186;17.130;2023-11-21T06:45:12;10.25;80.22
70534;SHT31;58088;51.186;17.130;2023-11-21T06:47:39;10.22;80.22
70534;SHT31;58088;51.186;17.130;2023-11-21T06:50:05;10.21;80.23
70534;SHT31;58088;51.186;17.130;2023-11-21T06:52:32;10.23;80.27
70534;SHT31;58088;51.186;17.130;2023-11-21T06:54:58;10.23;80.21
70534;SHT31;58088;51.186;17.130;2023-11-21T06:57:25;10.22;80.20
70534;SHT31;58088;51.186;17.130;2023-11-21T06:59:51;10.21;80.20
70534;SHT31;58088;51.186;17.130;2023-11-21T07:02:17;10.21;80.22
70534;SHT31;58088;51.186;17.130;2023-11-21T07:04:46;10.22;80.27
70534;SHT31;58088;51.186;17.130;2023-11-21T07:07:12;10.25;80.26
70534;SHT31;58088;51.186;17.130;2023-11-21T07:09:39;10.26;80.27
70534;SHT31;58088;51.186;17.130;2023-11-21T07:12:05;10.26;80.20
70534;SHT31;58088;51.186;17.130;2023-11-21T07:14:33;10.27;80.21
70534;SHT31;58088;51.186;17.130;2023-11-21T07:17:00;10.27;80.20
70534;SHT31;58088;51.186;17.130;2023-11-21T07:19:26;10.27;80.21
70534;SHT31;58088;51.186;17.130;2023-11-21T07:21:52;10.29;80.20
70534;SHT31;58088;51.186;17.130;2023-11-21T07:24:19;10.31;80.20
70534;SHT31;58088;51.186;17.130;2023-11-21T07:26:45;10.30;80.17
70534;SHT31;58088;51.186;17.130;2023-11-21T07:29:11;10.33;80.20
70534;SHT31;58088;51.186;17.130;2023-11-21T07:31:38;10.34;80.19
70534;SHT31;58088;51.186;17.130;2023-11-21T07:34:06;10.35;80.21
70534;SHT31;58088;51.186;17.130;2023-11-21T07:36:33;10.37;80.21
70534;SHT31;58088;51.186;17.130;2023-11-21T07:39:00;10.41;80.22
70534;SHT31;58088;51.186;17.130;2023-11-21T07:41:27;10.44;80.20
70534;SHT31;58088;51.186;17.130;2023-11-21T07:43:55;10.47;80.14
70534;SHT31;58088;51.186;17.130;2023-11-21T07:46:21;10.45;80.03
70534;SHT31;58088;51.186;17.130;2023-11-21T07:48:47;10.44;80.10
70534;SHT31;58088;51.186;17.130;2023-11-21T07:51:13;10.43;80.10
70534;SHT31;58088;51.186;17.130;2023-11-21T07:53:40;10.43;80.12
70534;SHT31;58088;51.186;17.130;2023-11-21T07:56:07;10.45;80.20
70534;SHT31;58088;51.186;17.130;2023-11-21T07:58:34;10.49;80.19
70534;SHT31;58088;51.186;17.130;2023-11-21T08:01:02;10.55;80.20
70534;SHT31;58088;51.186;17.130;2023-11-21T08:03:29;10.58;80.15
70534;SHT31;58088;51.186;17.130;2023-11-21T08:05:56;10.59;80.07
70534;SHT31;58088;51.186;17.130;2023-11-21T08:08:29;10.63;80.07
70534;SHT31;58088;51.186;17.130;2023-11-21T08:10:55;10.64;79.94
70534;SHT31;58088;51.186;17.130;2023-11-21T08:13:24;10.61;79.89
70534;SHT31;58088;51.186;17.130;2023-11-21T08:15:55;10.63;79.91
70534;SHT31;58088;51.186;17.130;2023-11-21T08:18:23;10.63;79.91
70534;SHT31;58088;51.186;17.130;2023-11-21T08:20:50;10.64;79.92
70534;SHT31;58088;51.186;17.130;2023-11-21T08:23:16;10.67;80.00
70534;SHT31;58088;51.186;17.130;2023-11-21T08:25:43;10.70;79.99
70534;SHT31;58088;51.186;17.130;2023-11-21T08:28:10;10.69;79.92
70534;SHT31;58088;51.186;17.130;2023-11-21T08:30:36;10.72;79.94
70534;SHT31;58088;51.186;17.130;2023-11-21T08:33:02;10.75;79.91
70534;SHT31;58088;51.186;17.130;2023-11-21T08:35:29;10.78;79.95
70534;SHT31;58088;51.186;17.130;2023-11-21T08:37:57;10.81;79.94
70534;SHT31;58088;51.186;17.130;2023-11-21T08:40:23;10.85;79.91
70534;SHT31;58088;51.186;17.130;2023-11-21T08:42:49;10.87;79.86
70534;SHT31;58088;51.186;17.130;2023-11-21T08:45:17;10.90;79.80
70534;SHT31;58088;51.186;17.130;2023-11-21T08:47:45;10.94;79.80
70534;SHT31;58088;51.186;17.130;2023-11-21T08:50:11;10.98;79.71
70534;SHT31;58088;51.186;17.130;2023-11-21T08:52:38;11.00;79.67
70534;SHT31;58088;51.186;17.130;2023-11-21T08:55:06;11.05;79.70
70534;SHT31;58088;51.186;17.130;2023-11-21T08:57:37;11.13;79.69
70534;SHT31;58088;51.186;17.130;2023-11-21T09:00:06;11.16;79.62
70534;SHT31;58088;51.186;17.130;2023-11-21T09:02:41;11.21;79.62
70534;SHT31;58088;51.186;17.130;2023-11-21T09:05:08;11.22;79.45
70534;SHT31;58088;51.186;17.130;2023-11-21T09:07:37;11.20;79.37
70534;SHT31;58088;51.186;17.130;2023-11-21T09:10:06;11.19;79.31
70534;SHT31;58088;51.186;17.130;2023-11-21T09:12:35;11.19;79.30
70534;SHT31;58088;51.186;17.130;2023-11-21T09:15:06;11.20;79.30
70534;SHT31;58088;51.186;17.130;2023-11-21T09:17:35;11.19;79.28
70534;SHT31;58088;51.186;17.130;2023-11-21T09:20:02;11.20;79.22
70534;SHT31;58088;51.186;17.130;2023-11-21T09:22:31;11.24;79.26
70534;SHT31;58088;51.186;17.130;2023-11-21T09:24:58;11.24;79.20
70534;SHT31;58088;51.186;17.130;2023-11-21T09:27:25;11.28;79.20
70534;SHT31;58088;51.186;17.130;2023-11-21T09:29:51;11.27;79.13
70534;SHT31;58088;51.186;17.130;2023-11-21T09:32:18;11.28;79.06
70534;SHT31;58088;51.186;17.130;2023-11-21T09:34:47;11.26;79.08
70534;SHT31;58088;51.186;17.130;2023-11-21T09:37:16;11.30;79.16
70534;SHT31;58088;51.186;17.130;2023-11-21T09:39:43;11.31;79.03
70534;SHT31;58088;51.186;17.130;2023-11-21T09:42:12;11.29;78.81
70534;SHT31;58088;51.186;17.130;2023-11-21T09:44:51;11.24;78.64
70534;SHT31;58088;51.186;17.130;2023-11-21T09:47:27;11.21;78.64
70534;SHT31;58088;51.186;17.130;2023-11-21T09:49:54;11.19;78.53
70534;SHT31;58088;51.186;17.130;2023-11-21T09:52:24;11.15;78.44
70534;SHT31;58088;51.186;17.130;2023-11-21T09:54:52;11.12;78.41
70534;SHT31;58088;51.186;17.130;2023-11-21T09:57:20;11.09;78.38
70534;SHT31;58088;51.186;17.130;2023-11-21T09:59:52;11.08;78.42
70534;SHT31;58088;51.186;17.130;2023-11-21T10:02:25;11.03;78.36
70534;SHT31;58088;51.186;17.130;2023-11-21T10:04:55;11.00;78.30
70534;SHT31;58088;51.186;17.130;2023-11-21T10:07:22;10.94;78.32
70534;SHT31;58088;51.186;17.130;2023-11-21T10:09:49;10.92;78.39
70534;SHT31;58088;51.186;17.130;2023-11-21T10:12:17;10.90;78.30
70534;SHT31;58088;51.186;17.130;2023-11-21T10:14:46;10.87;78.30
70534;SHT31;58088;51.186;17.130;2023-11-21T10:17:15;10.85;78.26
70534;SHT31;58088;51.186;17.130;2023-11-21T10:19:46;10.80;78.36
70534;SHT31;58088;51.186;17.130;2023-11-21T10:22:14;10.78;78.41
70534;SHT31;58088;51.186;17.130;2023-11-21T10:24:41;10.70;78.38
70534;SHT31;58088;51.186;17.130;2023-11-21T10:27:09;10.64;78.41
70534;SHT31;58088;51.186;17.130;2023-11-21T10:29:35;10.58;78.28
70534;SHT31;58088;51.186;17.130;2023-11-21T10:32:02;10.52;78.19
70534;SHT31;58088;51.186;17.130;2023-11-21T10:34:29;10.44;78.12
70534;SHT31;58088;51.186;17.130;2023-11-21T10:36:55;10.36;77.96
70534;SHT31;58088;51.186;17.130;2023-11-21T10:39:24;10.32;78.08
70534;SHT31;58088;51.186;17.130;2023-11-21T10:41:56;10.28;78.03
70534;SHT31;58088;51.186;17.130;2023-11-21T10:44:22;10.22;77.92
70534;SHT31;58088;51.186;17.130;2023-11-21T10:46:50;10.17;77.88
70534;SHT31;58088;51.186;17.130;2023-11-21T10:49:22;10.10;77.79
70534;SHT31;58088;51.186;17.130;2023-11-21T10:51:50;10.01;77.52
70534;SHT31;58088;51.186;17.130;2023-11-21T10:54:22;9.91;77.34
70534;SHT31;58088;51.186;17.130;2023-11-21T10:56:59;9.79;77.29
70534;SHT31;58088;51.186;17.130;2023-11-21T10:59:28;9.70;77.33
70534;SHT31;58088;51.186;17.130;2023-11-21T11:01:57;9.64;77.39
70534;SHT31;58088;51.186;17.130;2023-11-21T11:04:27;9.64;77.37
70534;SHT31;58088;51.186;17.130;2023-11-21T11:06:54;9.59;77.35
70534;SHT31;58088;51.186;17.130;2023-11-21T11:09:23;9.53;77.35
70534;SHT31;58088;51.186;17.130;2023-11-21T11:11:51;9.47;77.32
70534;SHT31;58088;51.186;17.130;2023-11-21T11:14:18;9.40;77.18
70534;SHT31;58088;51.186;17.130;2023-11-21T11:16:45;9.29;77.14
70534;SHT31;58088;51.186;17.130;2023-11-21T11:19:11;9.24;77.10
70534;SHT31;58088;51.186;17.130;2023-11-21T11:28:01;9.00;77.03
70534;SHT31;58088;51.186;17.130;2023-11-21T11:33:45;8.79;76.99
70534;SHT31;58088;51.186;17.130;2023-11-21T11:42:06;8.65;77.01
70534;SHT31;58088;51.186;17.130;2023-11-21T11:47:31;8.59;76.90
70534;SHT31;58088;51.186;17.130;2023-11-21T11:52:46;8.50;76.94
70534;SHT31;58088;51.186;17.130;2023-11-21T11:55:16;8.38;76.79
70534;SHT31;58088;51.186;17.130;2023-11-21T11:57:46;8.31;76.86
70534;SHT31;58088;51.186;17.130;2023-11-21T12:02:55;8.22;76.75
70534;SHT31;58088;51.186;17.130;2023-11-21T12:05:25;8.16;76.68
70534;SHT31;58088;51.186;17.130;2023-11-21T12:08:02;8.09;76.56
70534;SHT31;58088;51.186;17.130;2023-11-21T12:10:30;8.02;76.55
70534;SHT31;58088;51.186;17.130;2023-11-21T12:13:02;7.98;76.51
70534;SHT31;58088;51.186;17.130;2023-11-21T12:15:33;7.93;76.50
70534;SHT31;58088;51.186;17.130;2023-11-21T12:18:00;7.87;76.52
70534;SHT31;58088;51.186;17.130;2023-11-21T12:20:27;7.81;76.55
70534;SHT31;58088;51.186;17.130;2023-11-21T12:22:55;7.73;76.49
70534;SHT31;58088;51.186;17.130;2023-11-21T12:25:26;7.58;76.41
70534;SHT31;58088;51.186;17.130;2023-11-21T12:27:55;7.45;76.44
70534;SHT31;58088;51.186;17.130;2023-11-21T12:30:23;7.40;76.54
70534;SHT31;58088;51.186;17.130;2023-11-21T12:32:59;7.36;76.56
70534;SHT31;58088;51.186;17.130;2023-11-21T12:35:27;7.28;76.57
70534;SHT31;58088;51.186;17.130;2023-11-21T12:38:00;7.23;76.56
70534;SHT31;58088;51.186;17.130;2023-11-21T12:40:29;7.17;76.61
70534;SHT31;58088;51.186;17.130;2023-11-21T12:42:56;7.15;76.78
70534;SHT31;58088;51.186;17.130;2023-11-21T12:45:25;7.10;76.75
70534;SHT31;58088;51.186;17.130;2023-11-21T12:50:25;7.00;76.85
70534;SHT31;58088;51.186;17.130;2023-11-21T12:53:01;6.97;77.03
70534;SHT31;58088;51.186;17.130;2023-11-21T12:55:37;6.93;76.89
70534;SHT31;58088;51.186;17.130;2023-11-21T12:58:04;6.87;76.80
70534;SHT31;58088;51.186;17.130;2023-11-21T13:00:36;6.82;76.74
70534;SHT31;58088;51.186;17.130;2023-11-21T13:03:05;6.74;76.79
70534;SHT31;58088;51.186;17.130;2023-11-21T13:05:36;6.70;76.96
70534;SHT31;58088;51.186;17.130;2023-11-21T13:08:04;6.67;76.98
70534;SHT31;58088;51.186;17.130;2023-11-21T13:10:37;6.60;77.00
70534;SHT31;58088;51.186;17.130;2023-11-21T13:13:08;6.55;77.10
70534;SHT31;58088;51.186;17.130;2023-11-21T13:15:47;6.51;77.12
70534;SHT31;58088;51.186;17.130;2023-11-21T13:18:27;6.48;77.19
70534;SHT31;58088;51.186;17.130;2023-11-21T13:20:54;6.45;77.12
70534;SHT31;58088;51.186;17.130;2023-11-21T13:23:22;6.42;77.21
70534;SHT31;58088;51.186;17.130;2023-11-21T13:25:49;6.39;77.21
70534;SHT31;58088;51.186;17.130;2023-11-21T13:28:16;6.36;77.10
70534;SHT31;58088;51.186;17.130;2023-11-21T13:30:43;6.30;77.01
70534;SHT31;58088;51.186;17.130;2023-11-21T13:33:10;6.27;77.07
70534;SHT31;58088;51.186;17.130;2023-11-21T13:35:43;6.27;77.13
70534;SHT31;58088;51.186;17.130;2023-11-21T13:38:17;6.21;77.08
70534;SHT31;58088;51.186;17.130;2023-11-21T13:40:49;6.19;77.28
70534;SHT31;58088;51.186;17.130;2023-11-21T13:43:23;6.18;77.25
70534;SHT31;58088;51.186;17.130;2023-11-21T13:45:52;6.15;77.28
70534;SHT31;58088;51.186;17.130;2023-11-21T13:48:44;6.12;77.29
70534;SHT31;58088;51.186;17.130;2023-11-21T13:51:16;6.08;77.19
70534;SHT31;58088;51.186;17.130;2023-11-21T13:53:46;6.03;77.11
70534;SHT31;58088;51.186;17.130;2023-11-21T13:56:16;5.97;77.11
70534;SHT31;58088;51.186;17.130;2023-11-21T13:58:49;5.87;77.02
70534;SHT31;58088;51.186;17.130;2023-11-21T14:01:23;5.81;77.16
70534;SHT31;58088;51.186;17.130;2023-11-21T14:03:58;5.76;77.16
70534;SHT31;58088;51.186;17.130;2023-11-21T14:06:47;5.74;77.24
70534;SHT31;58088;51.186;17.130;2023-11-21T14:09:17;5.71;77.25
70534;SHT31;58088;51.186;17.130;2023-11-21T14:11:51;5.67;77.37
70534;SHT31;58088;51.186;17.130;2023-11-21T14:14:19;5.61;77.45
70534;SHT31;58088;51.186;17.130;2023-11-21T14:16:47;5.59;77.47
70534;SHT31;58088;51.186;17.130;2023-11-21T14:19:13;5.58;77.60
70534;SHT31;58088;51.186;17.130;2023-11-21T14:21:43;5.56;77.69
70534;SHT31;58088;51.186;17.130;2023-11-21T14:24:11;5.54;77.63
70534;SHT31;58088;51.186;17.130;2023-11-21T14:26:44;5.51;77.58
70534;SHT31;58088;51.186;17.130;2023-11-21T14:29:15;5.52;77.62
70534;SHT31;58088;51.186;17.130;2023-11-21T14:31:47;5.48;77.60
70534;SHT31;58088;51.186;17.130;2023-11-21T14:34:14;5.46;77.63
70534;SHT31;58088;51.186;17.130;2023-11-21T14:36:41;5.43;77.65
70534;SHT31;58088;51.186;17.130;2023-11-21T14:39:08;5.41;77.49
70534;SHT31;58088;51.186;17.130;2023-11-21T14:41:36;5.39;77.33
70534;SHT31;58088;51.186;17.130;2023-11-21T14:44:04;5.34;77.15
70534;SHT31;58088;51.186;17.130;2023-11-21T14:46:33;5.33;77.19
70534;SHT31;58088;51.186;17.130;2023-11-21T14:49:00;5.30;77.15
70534;SHT31;58088;51.186;17.130;2023-11-21T14:51:49;5.27;77.20
70534;SHT31;58088;51.186;17.130;2023-11-21T14:54:29;5.23;77.19
70534;SHT31;58088;51.186;17.130;2023-11-21T14:57:06;5.19;77.05
70534;SHT31;58088;51.186;17.130;2023-11-21T14:59:37;5.11;76.89
70534;SHT31;58088;51.186;17.130;2023-11-21T15:02:10;5.04;76.89
70534;SHT31;58088;51.186;17.130;2023-11-21T15:04:47;5.04;77.03
70534;SHT31;58088;51.186;17.130;2023-11-21T15:07:14;4.99;77.01
70534;SHT31;58088;51.186;17.130;2023-11-21T15:09:40;4.94;77.05
70534;SHT31;58088;51.186;17.130;2023-11-21T15:12:08;4.90;77.09
70534;SHT31;58088;51.186;17.130;2023-11-21T15:14:42;4.87;77.24
70534;SHT31;58088;51.186;17.130;2023-11-21T15:17:18;4.84;77.26
70534;SHT31;58088;51.186;17.130;2023-11-21T15:19:52;4.79;77.33
70534;SHT31;58088;51.186;17.130;2023-11-21T15:22:20;4.78;77.40
70534;SHT31;58088;51.186;17.130;2023-11-21T15:24:49;4.74;77.39
70534;SHT31;58088;51.186;17.130;2023-11-21T15:27:20;4.72;77.42
70534;SHT31;58088;51.186;17.130;2023-11-21T15:29:46;4.68;77.46
70534;SHT31;58088;51.186;17.130;2023-11-21T15:32:13;4.65;77.44
70534;SHT31;58088;51.186;17.130;2023-11-21T15:34:39;4.65;77.48
70534;SHT31;58088;51.186;17.130;2023-11-21T15:37:06;4.66;77.58
70534;SHT31;58088;51.186;17.130;2023-11-21T15:39:37;4.66;77.54
70534;SHT31;58088;51.186;17.130;2023-11-21T15:42:04;4.65;77.50
70534;SHT31;58088;51.186;17.130;2023-11-21T15:44:32;4.61;77.45
70534;SHT31;58088;51.186;17.130;2023-11-21T15:46:59;4.54;77.23
70534;SHT31;58088;51.186;17.130;2023-11-21T15:49:25;4.48;77.18
70534;SHT31;58088;51.186;17.130;2023-11-21T15:51:53;4.46;77.22
70534;SHT31;58088;51.186;17.130;2023-11-21T15:54:21;4.42;77.14
70534;SHT31;58088;51.186;17.130;2023-11-21T15:56:50;4.38;77.12